CheckWX is a tool to help pilots better visualize weather data.  It is not intended as a substitute for an official pre-flight weather briefing.

15:05:13 UTC

KRKD TAF
Knox County Regional Airport
Rockland, Maine, USA
KRKD 291733Z 2918/3018 21012G18KT P6SM OVC006 TEMPO 2918/2922 SCT008 SCT035 FM300000 21010KT 2SM BR OVC004 FM300400 21012G20KT 1/2SM FG OVC003 FM301300 21010KT 2SM BR OVC005 FM301400 22012KT P6SM SCT035 AMD LTD TO CLD VIS AND WIND

May-29@
18:00 UTC

May-29 @ 18:00 UTC

May-30@
00:00 UTC

May-30 @ 00:00 UTC

TAF KRKD 291733Z 2918/3018 21012G18KT P6SM OVC006

Expired

Wind
  • 210° at 12 KTS
  • {Gusting to 18 KTS
Cloud Levels
  • Overcast at 600' AGL

May-29@
18:00 UTC

May-29 @ 18:00 UTC

May-29@
22:00 UTC

May-29 @ 22:00 UTC

TEMPO 2918/2922 SCT008 SCT035

Expired

Cloud Levels
  • Scattered at 800' AGL
  • Scattered at 3,500' AGL

May-30@
00:00 UTC

May-30 @ 00:00 UTC

May-30@
04:00 UTC

May-30 @ 04:00 UTC

FM300000 21010KT 2SM BR OVC004

Expired

Wind
  • 210° at 10 KTS
Conditions
Mist
Cloud Levels
  • Overcast at 400' AGL

May-30@
04:00 UTC

May-30 @ 04:00 UTC

May-30@
13:00 UTC

May-30 @ 13:00 UTC

FM300400 21012G20KT 1/2SM FG OVC003

Expired

Wind
  • 210° at 12 KTS
  • {Gusting to 20 KTS
Conditions
Fog
Cloud Levels
  • Overcast at 300' AGL

May-30@
13:00 UTC

May-30 @ 13:00 UTC

May-30@
14:00 UTC

May-30 @ 14:00 UTC

FM301300 21010KT 2SM BR OVC005

Expired

Wind
  • 210° at 10 KTS
Conditions
Mist
Cloud Levels
  • Overcast at 500' AGL

May-30@
14:00 UTC

May-30 @ 14:00 UTC

May-30@
18:00 UTC

May-30 @ 18:00 UTC

FM301400 22012KT P6SM SCT035 AMD LTD TO CLD VIS AND WIND

From

From Standard forecast or significant change

Wind
  • 220° at 12 KTS
Cloud Levels
  • Scattered at 3,500' AGL